Time;durP1;ratioP1;P1;durP2;ratioP2;P2;SDS_P1;SDS_P2;PMS_P1;PMS_P2;Temp;Humidity;BMP_temperature;BMP_pressure;BME280_temperature;BME280_humidity;BME280_pressure;Samples;Min_cycle;Max_cycle;Signal;HPM_P1;HPM_P2
2021/03/21 00:01:49;;;;;;;1.88;1.10;;;22.90;41.30;;;;;;5030019;28;20078;-64
2021/03/21 00:04:15;;;;;;;2.28;1.10;;;22.90;41.40;;;;;;5042225;28;20028;-64
2021/03/21 00:06:41;;;;;;;1.75;1.00;;;22.90;41.40;;;;;;5042510;28;20025;-64
2021/03/21 00:09:08;;;;;;;2.17;1.17;;;22.80;41.30;;;;;;5042815;28;20045;-65
2021/03/21 00:11:34;;;;;;;1.45;0.90;;;22.80;41.30;;;;;;5048428;28;20108;-63
2021/03/21 00:14:00;;;;;;;1.98;1.00;;;22.80;41.40;;;;;;5044694;28;20086;-66
2021/03/21 00:16:26;;;;;;;1.38;1.00;;;22.80;41.40;;;;;;5040122;28;20028;-64
2021/03/21 00:18:52;;;;;;;2.20;0.95;;;22.80;41.40;;;;;;5039961;28;20108;-64
2021/03/21 00:21:18;;;;;;;1.73;1.08;;;22.80;41.50;;;;;;5040830;28;20040;-66
2021/03/21 00:23:44;;;;;;;1.73;0.98;;;22.80;41.50;;;;;;5041060;28;20063;-65
2021/03/21 00:26:11;;;;;;;1.75;1.00;;;22.80;41.50;;;;;;5042663;28;20039;-65
2021/03/21 00:28:38;;;;;;;2.10;1.10;;;22.70;41.50;;;;;;5044671;28;20048;-64
2021/03/21 00:31:06;;;;;;;1.77;0.90;;;22.70;41.50;;;;;;5036218;28;20041;-65
2021/03/21 00:33:34;;;;;;;1.92;0.90;;;22.80;41.50;;;;;;5035492;28;20047;-66
2021/03/21 00:36:00;;;;;;;2.03;1.00;;;22.70;41.50;;;;;;5040643;28;20035;-64
2021/03/21 00:38:38;;;;;;;1.48;0.90;;;22.70;41.50;;;;;;5053281;28;20432;-64
2021/03/21 00:41:07;;;;;;;1.38;0.90;;;22.70;41.50;;;;;;5027235;28;20040;-65
2021/03/21 00:43:33;;;;;;;1.90;1.00;;;22.70;42.10;;;;;;5040524;28;20510;-65
2021/03/21 00:45:58;;;;;;;1.20;0.90;;;22.70;41.60;;;;;;5041288;28;20083;-65
2021/03/21 00:48:27;;;;;;;1.77;1.00;;;22.70;41.60;;;;;;5042911;28;20040;-65
2021/03/21 00:50:55;;;;;;;1.65;0.95;;;22.70;41.60;;;;;;5039433;28;20227;-64
2021/03/21 00:53:21;;;;;;;1.58;0.93;;;22.70;41.70;;;;;;5039442;28;20380;-65
2021/03/21 00:55:47;;;;;;;2.30;0.90;;;22.70;41.60;;;;;;5036458;28;20060;-63
2021/03/21 00:58:19;;;;;;;2.38;1.05;;;22.60;41.60;;;;;;5042067;28;20040;-65
2021/03/21 01:00:54;;;;;;;1.88;0.98;;;22.60;41.60;;;;;;5021273;28;20116;-64
2021/03/21 01:03:20;;;;;;;1.80;0.95;;;22.60;41.70;;;;;;5040764;28;20120;-66
2021/03/21 01:05:48;;;;;;;1.48;0.80;;;22.60;41.70;;;;;;5042720;28;20033;-64
2021/03/21 01:08:31;;;;;;;1.92;0.82;;;22.60;41.60;;;;;;5043497;28;20114;-65
2021/03/21 01:11:00;;;;;;;1.20;0.85;;;22.60;41.60;;;;;;5041679;28;20031;-63
2021/03/21 01:13:26;;;;;;;;;;;22.60;41.70;;;;;;5044202;28;20075;-64
2021/03/21 01:15:52;;;;;;;1.63;0.80;;;22.60;41.60;;;;;;5045494;28;19908;-64
2021/03/21 01:18:24;;;;;;;1.02;0.90;;;22.60;41.60;;;;;;5045702;28;20082;-65
2021/03/21 01:20:50;;;;;;;1.88;1.00;;;22.60;41.60;;;;;;5027247;28;20022;-64
2021/03/21 01:23:16;;;;;;;1.95;1.00;;;22.60;41.50;;;;;;5042868;28;20079;-64
2021/03/21 01:25:43;;;;;;;1.50;0.90;;;22.60;41.50;;;;;;5045831;28;20108;-64
2021/03/21 01:28:25;;;;;;;1.60;0.90;;;22.60;41.50;;;;;;5048010;28;20029;-64
2021/03/21 01:30:52;;;;;;;1.75;1.00;;;22.60;41.50;;;;;;5046704;28;20511;-65
2021/03/21 01:33:19;;;;;;;0.93;0.80;;;22.60;41.50;;;;;;5033788;28;20072;-65
2021/03/21 01:35:46;;;;;;;1.63;0.90;;;22.50;41.40;;;;;;5043142;28;20033;-64
2021/03/21 01:38:11;;;;;;;1.15;0.90;;;22.50;41.40;;;;;;5047061;28;20089;-64
2021/03/21 01:40:37;;;;;;;1.05;0.70;;;22.50;41.40;;;;;;5045079;28;20021;-65
2021/03/21 01:43:03;;;;;;;1.60;0.85;;;22.50;41.40;;;;;;5047637;28;20041;-64
2021/03/21 01:45:33;;;;;;;1.40;0.82;;;22.50;41.40;;;;;;5044501;28;20072;-65
2021/03/21 01:48:05;;;;;;;1.92;0.93;;;22.50;41.30;;;;;;5047046;28;20025;-64
2021/03/21 01:50:47;;;;;;;0.77;0.68;;;22.50;41.30;;;;;;5045554;28;20522;-64
2021/03/21 01:53:16;;;;;;;1.67;1.00;;;22.40;41.30;;;;;;5045669;28;20113;-64
2021/03/21 01:55:42;;;;;;;1.25;0.80;;;22.50;41.80;;;;;;5046597;28;20136;-64
2021/03/21 01:58:08;;;;;;;1.55;0.90;;;22.40;41.30;;;;;;5046333;28;20163;-65
2021/03/21 02:00:38;;;;;;;1.60;0.90;;;22.50;41.30;;;;;;5044563;28;20126;-65
2021/03/21 02:03:04;;;;;;;1.90;1.10;;;22.50;41.30;;;;;;5032319;28;20032;-64
2021/03/21 02:05:29;;;;;;;1.38;0.70;;;22.40;41.20;;;;;;5046020;28;20033;-65
2021/03/21 02:08:26;;;;;;;1.30;0.88;;;22.40;41.20;;;;;;5041121;28;20042;-64
2021/03/21 02:11:10;;;;;;;1.20;0.80;;;22.40;41.20;;;;;;5043299;28;20043;-64
2021/03/21 02:14:04;;;;;;;1.10;0.77;;;22.40;41.20;;;;;;5046980;28;20067;-64
2021/03/21 02:16:42;;;;;;;1.23;0.90;;;22.40;41.20;;;;;;5045903;28;20040;-65
2021/03/21 02:19:42;;;;;;;1.10;0.70;;;22.40;41.20;;;;;;5045449;28;20021;-65
2021/03/21 02:22:20;;;;;;;1.40;0.85;;;22.40;41.30;;;;;;5046182;28;20651;-66
2021/03/21 02:25:15;;;;;;;1.67;0.80;;;22.40;41.20;;;;;;5045116;28;20045;-65
2021/03/21 02:28:08;;;;;;;1.40;0.80;;;22.40;41.20;;;;;;5046036;28;20120;-63
2021/03/21 02:30:45;;;;;;;1.35;0.90;;;22.40;41.20;;;;;;5045256;28;20029;-64
2021/03/21 02:33:26;;;;;;;1.15;0.70;;;22.40;41.20;;;;;;5046399;28;20036;-64
2021/03/21 02:36:08;;;;;;;0.88;0.70;;;22.40;41.20;;;;;;5044336;28;20424;-65
2021/03/21 02:38:55;;;;;;;0.98;0.80;;;22.40;41.20;;;;;;5046695;28;20210;-64
2021/03/21 02:41:34;;;;;;;0.95;0.77;;;22.30;41.10;;;;;;5043513;28;20037;-65
2021/03/21 02:44:22;;;;;;;0.80;0.60;;;22.30;41.10;;;;;;5044852;28;20053;-64
2021/03/21 02:46:54;;;;;;;0.73;0.60;;;22.30;41.10;;;;;;5032128;28;20128;-64
2021/03/21 02:49:19;;;;;;;1.17;0.73;;;22.30;41.10;;;;;;5046965;28;20036;-66
2021/03/21 02:51:51;;;;;;;1.23;0.90;;;22.30;41.10;;;;;;5045868;28;20049;-64
2021/03/21 02:54:25;;;;;;;1.00;0.73;;;22.30;41.10;;;;;;5041295;28;20070;-65
2021/03/21 02:56:58;;;;;;;1.20;0.80;;;22.30;41.10;;;;;;5040717;28;20052;-65
2021/03/21 02:59:32;;;;;;;0.85;0.70;;;22.30;41.10;;;;;;5047003;28;20162;-65
2021/03/21 03:02:06;;;;;;;1.40;0.75;;;22.30;41.10;;;;;;5043621;28;20051;-64
2021/03/21 03:04:52;;;;;;;0.90;0.70;;;22.30;41.10;;;;;;5034195;28;20228;-64
2021/03/21 03:07:28;;;;;;;2.15;1.02;;;22.30;41.10;;;;;;5045436;28;20033;-65
2021/03/21 03:09:58;;;;;;;1.20;0.73;;;22.30;41.10;;;;;;5032714;28;20025;-64
2021/03/21 03:12:33;;;;;;;1.20;0.90;;;22.20;41.10;;;;;;5043857;28;20106;-65
2021/03/21 03:15:04;;;;;;;1.17;0.88;;;22.20;41.10;;;;;;5045681;28;20041;-64
2021/03/21 03:17:37;;;;;;;2.28;0.80;;;22.20;41.10;;;;;;5051913;28;20063;-64
2021/03/21 03:20:14;;;;;;;1.20;0.80;;;22.20;41.10;;;;;;5044812;28;20421;-65
2021/03/21 03:23:11;;;;;;;0.73;0.70;;;22.20;41.10;;;;;;5046563;28;20132;-64
2021/03/21 03:25:49;;;;;;;1.83;0.80;;;22.20;41.20;;;;;;5042202;28;20068;-66
2021/03/21 03:28:36;;;;;;;1.67;0.80;;;22.20;41.10;;;;;;5039969;28;20060;-66
2021/03/21 03:31:08;;;;;;;0.95;0.70;;;22.20;41.10;;;;;;5033595;28;20045;-64
2021/03/21 03:33:35;;;;;;;1.25;0.73;;;22.20;41.20;;;;;;5030793;28;20133;-65
2021/03/21 03:36:02;;;;;;;1.38;0.90;;;22.20;41.20;;;;;;5043373;28;20037;-64
2021/03/21 03:38:28;;;;;;;1.20;0.70;;;22.20;41.20;;;;;;5045784;28;20075;-66
2021/03/21 03:41:02;;;;;;;1.48;0.90;;;22.20;41.20;;;;;;5043934;28;20052;-64
2021/03/21 03:44:02;;;;;;;1.00;0.80;;;22.20;41.20;;;;;;5044789;28;20140;-65
2021/03/21 03:46:59;;;;;;;1.58;0.77;;;22.10;41.10;;;;;;5024529;28;20049;-65
2021/03/21 03:49:33;;;;;;;0.95;0.60;;;22.10;41.10;;;;;;5045735;28;20029;-65
2021/03/21 03:52:23;;;;;;;1.25;0.85;;;22.10;41.10;;;;;;5040755;28;20033;-64
2021/03/21 03:55:28;;;;;;;0.80;0.63;;;22.10;41.20;;;;;;5040744;28;20470;-64
2021/03/21 03:58:31;;;;;;;1.10;0.70;;;22.20;41.20;;;;;;5012593;28;20124;-64
2021/03/21 04:01:02;;;;;;;0.85;0.70;;;22.10;41.20;;;;;;5035633;28;20045;-64
2021/03/21 04:03:57;;;;;;;0.88;0.68;;;22.10;41.20;;;;;;5045885;28;20025;-64
2021/03/21 04:06:48;;;;;;;1.02;0.70;;;22.10;41.20;;;;;;5042814;28;20056;-64
2021/03/21 04:09:16;;;;;;;0.95;0.70;;;22.10;41.20;;;;;;5045923;28;20384;-65
2021/03/21 04:11:54;;;;;;;0.97;0.73;;;22.10;41.20;;;;;;5044050;28;20025;-65
2021/03/21 04:14:41;;;;;;;1.00;0.80;;;22.10;41.30;;;;;;5043165;28;20033;-64
2021/03/21 04:17:13;;;;;;;1.05;0.70;;;22.10;41.20;;;;;;5043689;28;20052;-64
2021/03/21 04:19:45;;;;;;;1.08;0.70;;;22.10;41.20;;;;;;5043899;28;20659;-65
2021/03/21 04:22:19;;;;;;;0.90;0.60;;;22.10;41.20;;;;;;5031026;28;20031;-65
2021/03/21 04:24:57;;;;;;;0.98;0.70;;;22.10;41.20;;;;;;5043419;28;20052;-64
2021/03/21 04:27:53;;;;;;;1.07;0.77;;;22.10;41.20;;;;;;5047766;28;20021;-64
2021/03/21 04:30:27;;;;;;;1.02;0.73;;;22.10;41.30;;;;;;5036368;28;20025;-66
2021/03/21 04:32:54;;;;;;;0.82;0.70;;;22.10;41.30;;;;;;5035605;28;20116;-65
2021/03/21 04:35:25;;;;;;;1.10;0.70;;;22.10;41.30;;;;;;5034523;28;20033;-64
2021/03/21 04:37:58;;;;;;;0.85;0.60;;;22.00;41.20;;;;;;5043922;28;20048;-65
2021/03/21 04:40:26;;;;;;;1.02;0.70;;;22.10;41.30;;;;;;5042341;28;20024;-64
2021/03/21 04:43:08;;;;;;;0.88;0.70;;;22.00;41.20;;;;;;5042121;28;20115;-65
2021/03/21 04:45:43;;;;;;;1.23;0.80;;;22.00;41.20;;;;;;5038530;28;20045;-64
2021/03/21 04:48:12;;;;;;;1.10;0.70;;;22.00;41.20;;;;;;5030968;28;20494;-65
2021/03/21 04:50:38;;;;;;;1.05;0.75;;;22.00;41.30;;;;;;5045055;28;20458;-65
2021/03/21 04:53:15;;;;;;;1.10;0.90;;;22.10;41.30;;;;;;5047138;28;20033;-65
2021/03/21 04:55:45;;;;;;;0.95;0.68;;;22.00;41.30;;;;;;5047053;28;20075;-64
2021/03/21 04:58:36;;;;;;;1.15;0.70;;;22.00;41.30;;;;;;5047312;28;20051;-64
2021/03/21 05:01:09;;;;;;;1.17;0.70;;;22.00;41.30;;;;;;5039009;28;20029;-65
2021/03/21 05:03:43;;;;;;;1.00;0.60;;;22.00;41.30;;;;;;5043926;28;20041;-66
2021/03/21 05:06:19;;;;;;;0.90;0.73;;;22.00;41.30;;;;;;5060630;28;20044;-64
2021/03/21 05:08:57;;;;;;;0.73;0.60;;;22.00;41.30;;;;;;5037203;28;20104;-64
2021/03/21 05:11:35;;;;;;;1.20;0.88;;;22.00;41.30;;;;;;5066323;28;20120;-66
2021/03/21 05:14:04;;;;;;;1.02;0.70;;;22.00;41.30;;;;;;5039955;28;20021;-64
2021/03/21 05:16:54;;;;;;;0.80;0.63;;;22.00;41.30;;;;;;5046581;28;20120;-64
2021/03/21 05:19:45;;;;;;;0.85;0.70;;;22.00;41.30;;;;;;5042020;28;20559;-65
2021/03/21 05:22:35;;;;;;;0.85;0.65;;;22.00;41.30;;;;;;5043003;28;20025;-64
2021/03/21 05:25:15;;;;;;;1.05;0.80;;;22.00;41.30;;;;;;5045232;28;20119;-64
2021/03/21 05:27:43;;;;;;;1.02;0.70;;;22.00;41.30;;;;;;5063286;28;20035;-65
2021/03/21 05:30:15;;;;;;;0.93;0.63;;;22.00;41.30;;;;;;5046357;28;20578;-64
2021/03/21 05:32:41;;;;;;;0.75;0.60;;;22.00;41.30;;;;;;5046348;28;20083;-65
2021/03/21 05:35:08;;;;;;;0.80;0.60;;;22.00;41.30;;;;;;5048545;28;20115;-66
2021/03/21 05:37:55;;;;;;;0.85;0.50;;;22.00;41.30;;;;;;5043147;28;20033;-64
2021/03/21 05:40:46;;;;;;;0.57;0.57;;;22.00;41.30;;;;;;5045700;28;20058;-64
2021/03/21 05:43:44;;;;;;;0.60;0.60;;;22.00;41.40;;;;;;5057704;28;20041;-66
2021/03/21 05:46:20;;;;;;;1.20;0.70;;;22.00;41.30;;;;;;5043486;28;20032;-64
2021/03/21 05:49:31;;;;;;;0.80;0.60;;;22.00;41.30;;;;;;5046287;28;20336;-64
2021/03/21 05:52:05;;;;;;;0.60;0.60;;;22.00;41.40;;;;;;5033162;28;20152;-64
2021/03/21 05:55:12;;;;;;;0.77;0.70;;;22.00;41.40;;;;;;5043513;28;20033;-66
2021/03/21 05:58:09;;;;;;;0.70;0.60;;;22.00;41.30;;;;;;5013819;28;20033;-64
2021/03/21 06:00:59;;;;;;;0.95;0.70;;;22.00;41.40;;;;;;5040669;28;20334;-64
2021/03/21 06:04:12;;;;;;;1.05;0.68;;;22.00;41.40;;;;;;5052182;28;20056;-66
2021/03/21 06:07:27;;;;;;;0.57;0.50;;;22.00;41.40;;;;;;5016053;28;20439;-65
2021/03/21 06:09:53;;;;;;;0.73;0.60;;;22.00;41.40;;;;;;4986019;28;20045;-65
2021/03/21 06:12:40;;;;;;;0.60;0.60;;;22.00;41.40;;;;;;5039415;28;20033;-66
2021/03/21 06:15:24;;;;;;;0.63;0.60;;;21.90;41.30;;;;;;5029946;28;20032;-63
2021/03/21 06:18:19;;;;;;;0.90;0.70;;;21.90;41.30;;;;;;5041504;28;20116;-64
2021/03/21 06:21:10;;;;;;;0.88;0.80;;;22.00;41.40;;;;;;5014762;28;20503;-64
2021/03/21 06:23:41;;;;;;;1.00;0.70;;;22.00;41.30;;;;;;5043256;28;20267;-65
2021/03/21 06:26:16;;;;;;;0.73;0.60;;;22.00;41.30;;;;;;5048497;28;20060;-64
2021/03/21 06:29:12;;;;;;;0.68;0.57;;;22.00;41.40;;;;;;5041819;28;20040;-64
2021/03/21 06:32:01;;;;;;;0.57;0.50;;;22.00;41.40;;;;;;5041184;28;20048;-64
2021/03/21 06:34:52;;;;;;;0.45;0.45;;;22.00;41.40;;;;;;5040765;28;20028;-64
2021/03/21 06:37:33;;;;;;;0.85;0.60;;;22.00;41.30;;;;;;5040538;28;20025;-64
2021/03/21 06:40:17;;;;;;;0.77;0.50;;;22.00;41.40;;;;;;5041073;28;20045;-64
2021/03/21 06:42:55;;;;;;;0.98;0.70;;;22.00;41.30;;;;;;5016032;28;613265;-64
2021/03/21 06:45:45;;;;;;;0.80;0.60;;;22.00;41.40;;;;;;5038496;28;20111;-63
2021/03/21 06:48:31;;;;;;;0.68;0.50;;;22.00;41.40;;;;;;5038137;28;20127;-64
2021/03/21 06:51:17;;;;;;;0.50;0.50;;;21.90;41.30;;;;;;5041871;28;20047;-64
2021/03/21 06:53:55;;;;;;;0.60;0.60;;;21.90;41.30;;;;;;5044141;28;20028;-63
2021/03/21 06:57:08;;;;;;;0.68;0.50;;;21.90;41.30;;;;;;5043974;28;20085;-63
2021/03/21 06:59:56;;;;;;;0.60;0.60;;;21.90;41.30;;;;;;5041482;28;20179;-64
2021/03/21 07:02:36;;;;;;;0.68;0.50;;;21.90;41.30;;;;;;4998948;28;20033;-63
2021/03/21 07:05:02;;;;;;;0.50;0.50;;;21.90;41.30;;;;;;5056543;28;20479;-65
2021/03/21 07:07:45;;;;;;;0.40;0.40;;;22.00;41.40;;;;;;5043552;28;20031;-64
2021/03/21 07:10:30;;;;;;;0.50;0.50;;;21.90;41.30;;;;;;5042137;28;20033;-64
2021/03/21 07:13:14;;;;;;;0.80;0.60;;;21.90;41.30;;;;;;5041213;28;20044;-64
2021/03/21 07:16:28;;;;;;;0.63;0.60;;;21.90;41.30;;;;;;5045661;28;20033;-64
2021/03/21 07:19:30;;;;;;;0.82;0.60;;;21.90;41.30;;;;;;5044756;28;20404;-63
2021/03/21 07:22:21;;;;;;;0.52;0.50;;;21.90;41.30;;;;;;5042843;28;20071;-63
2021/03/21 07:25:11;;;;;;;0.60;0.60;;;21.90;41.30;;;;;;5042703;28;20036;-65
2021/03/21 07:28:00;;;;;;;0.60;0.50;;;21.90;41.30;;;;;;5044351;28;20535;-65
2021/03/21 07:30:44;;;;;;;0.50;0.50;;;21.90;41.30;;;;;;5040558;28;20510;-63
2021/03/21 07:33:43;;;;;;;0.73;0.60;;;21.90;41.30;;;;;;5047198;28;20024;-63
2021/03/21 07:36:12;;;;;;;;;;;21.90;41.30;;;;;;5043048;28;20043;-63
2021/03/21 07:39:10;;;;;;;1.42;0.60;;;21.90;41.30;;;;;;5042662;28;19912;-64
2021/03/21 07:41:35;;;;;;;0.80;0.60;;;21.90;41.30;;;;;;5036608;28;20657;-63
2021/03/21 07:44:13;;;;;;;0.93;0.68;;;21.90;41.30;;;;;;5037739;28;20049;-64
2021/03/21 07:46:49;;;;;;;0.57;0.55;;;21.90;41.30;;;;;;5037030;28;20034;-64
2021/03/21 07:49:34;;;;;;;0.60;0.60;;;21.90;41.40;;;;;;5041174;28;20028;-64
2021/03/21 07:52:18;;;;;;;0.50;0.50;;;21.90;41.40;;;;;;5049716;28;21711;-64
2021/03/21 07:54:55;;;;;;;0.90;0.70;;;21.90;41.40;;;;;;5042173;28;20426;-64
2021/03/21 07:57:45;;;;;;;0.55;0.55;;;21.90;41.40;;;;;;5035623;28;20044;-64
2021/03/21 08:00:12;;;;;;;0.68;0.50;;;21.80;41.40;;;;;;5028110;28;20121;-66
2021/03/21 08:02:38;;;;;;;0.98;0.68;;;21.80;41.40;;;;;;5041249;28;20033;-64
2021/03/21 08:05:12;;;;;;;0.50;0.50;;;21.90;41.50;;;;;;5040930;28;20033;-64
2021/03/21 08:07:41;;;;;;;0.65;0.50;;;21.80;41.50;;;;;;5043163;28;20407;-64
2021/03/21 08:10:20;;;;;;;1.35;0.73;;;21.80;41.50;;;;;;5042398;28;20586;-64
2021/03/21 08:12:52;;;;;;;1.40;0.65;;;21.80;41.50;;;;;;5033848;28;20029;-64
2021/03/21 08:15:28;;;;;;;1.23;0.70;;;21.90;41.50;;;;;;5042327;28;20021;-64
2021/03/21 08:18:00;;;;;;;1.15;0.60;;;21.90;41.50;;;;;;5041312;28;20456;-63
2021/03/21 08:20:31;;;;;;;1.05;0.70;;;21.80;41.40;;;;;;5041498;28;20346;-64
2021/03/21 08:23:13;;;;;;;1.27;0.70;;;21.80;41.40;;;;;;5041145;28;20112;-64
2021/03/21 08:25:40;;;;;;;1.08;0.65;;;21.80;41.30;;;;;;5043014;28;20522;-65
2021/03/21 08:28:11;;;;;;;0.80;0.60;;;21.80;41.30;;;;;;5045234;28;20365;-63
2021/03/21 08:30:58;;;;;;;1.48;0.80;;;21.90;41.40;;;;;;5042688;28;20605;-64
2021/03/21 08:33:43;;;;;;;1.80;0.70;;;21.80;41.30;;;;;;5043395;28;20041;-64
2021/03/21 08:36:27;;;;;;;0.88;0.70;;;21.80;41.20;;;;;;5040249;28;20028;-64
2021/03/21 08:39:05;;;;;;;0.73;0.60;;;21.90;41.50;;;;;;5037016;28;20021;-63
2021/03/21 08:41:46;;;;;;;0.95;0.60;;;21.80;41.10;;;;;;5038622;28;20063;-64
2021/03/21 08:44:28;;;;;;;0.75;0.60;;;21.80;41.10;;;;;;5039744;28;20075;-64
2021/03/21 08:46:54;;;;;;;1.55;0.63;;;21.80;41.10;;;;;;5034582;28;20136;-63
2021/03/21 08:49:24;;;;;;;1.27;0.70;;;21.80;41.00;;;;;;5040388;28;20098;-64
2021/03/21 08:51:50;;;;;;;0.95;0.70;;;21.80;40.90;;;;;;5040256;28;20748;-64
2021/03/21 08:54:28;;;;;;;0.93;0.70;;;21.80;40.90;;;;;;5039967;28;20044;-63
2021/03/21 08:57:03;;;;;;;1.52;0.75;;;21.80;40.80;;;;;;5047882;28;20627;-63
2021/03/21 08:59:45;;;;;;;2.17;0.70;;;21.80;40.80;;;;;;5043923;28;20025;-63
2021/03/21 09:02:14;;;;;;;2.53;0.70;;;21.80;40.70;;;;;;5040640;28;20040;-64
2021/03/21 09:05:07;;;;;;;0.82;0.70;;;21.80;40.70;;;;;;5040851;28;20488;-64
2021/03/21 09:08:00;;;;;;;2.55;0.80;;;21.80;40.60;;;;;;5040469;28;20025;-64
2021/03/21 09:10:32;;;;;;;0.80;0.60;;;21.80;40.70;;;;;;5036509;28;20037;-64
2021/03/21 09:13:06;;;;;;;2.53;0.85;;;21.80;40.70;;;;;;5039501;28;20025;-65
2021/03/21 09:15:38;;;;;;;1.20;1.00;;;21.80;40.60;;;;;;5048359;28;20055;-64
2021/03/21 09:18:16;;;;;;;1.52;0.70;;;21.80;40.60;;;;;;5020096;28;20029;-63
2021/03/21 09:20:45;;;;;;;1.33;0.75;;;21.80;40.60;;;;;;5033836;28;20487;-65
2021/03/21 09:23:32;;;;;;;0.82;0.70;;;21.80;41.20;;;;;;5034105;28;20364;-66
2021/03/21 09:26:00;;;;;;;1.90;0.80;;;21.80;40.60;;;;;;5039110;28;20043;-65
2021/03/21 09:28:33;;;;;;;1.88;0.80;;;21.80;40.70;;;;;;5041376;28;20033;-65
2021/03/21 09:31:03;;;;;;;0.80;0.70;;;21.80;40.70;;;;;;5038159;28;20045;-64
2021/03/21 09:33:36;;;;;;;2.42;0.80;;;21.80;40.70;;;;;;5039473;28;20499;-65
2021/03/21 09:36:12;;;;;;;2.40;0.80;;;21.80;40.70;;;;;;5041947;28;20033;-64
2021/03/21 09:38:53;;;;;;;1.65;0.77;;;21.80;40.70;;;;;;5045843;28;20498;-63
2021/03/21 09:41:19;;;;;;;2.25;0.90;;;21.80;40.70;;;;;;5035269;28;20028;-65
2021/03/21 09:43:48;;;;;;;1.08;0.70;;;21.80;40.70;;;;;;5045530;28;20068;-66
2021/03/21 09:46:35;;;;;;;1.75;0.70;;;21.80;40.70;;;;;;5044366;28;20032;-64
2021/03/21 09:49:05;;;;;;;2.20;1.00;;;21.80;40.70;;;;;;5043914;28;20767;-62
2021/03/21 09:51:49;;;;;;;0.98;0.80;;;21.80;40.80;;;;;;5043784;28;20044;-64
2021/03/21 09:54:45;;;;;;;1.90;0.88;;;21.80;40.80;;;;;;5045149;28;20120;-64
2021/03/21 09:57:40;;;;;;;1.92;0.93;;;21.80;40.80;;;;;;5034957;28;20021;-64
2021/03/21 10:00:13;;;;;;;1.77;0.80;;;21.80;40.90;;;;;;5041929;28;20072;-63
2021/03/21 10:02:44;;;;;;;1.67;0.90;;;21.80;40.80;;;;;;5043706;28;20044;-64
2021/03/21 10:05:53;;;;;;;1.65;0.80;;;21.80;40.80;;;;;;5044834;28;20052;-63
2021/03/21 10:08:26;;;;;;;1.65;0.90;;;21.80;40.90;;;;;;5041363;28;20025;-63
2021/03/21 10:10:59;;;;;;;1.60;0.85;;;21.80;40.90;;;;;;5045001;28;20129;-65
2021/03/21 10:13:35;;;;;;;1.85;0.80;;;21.80;40.90;;;;;;5058555;28;20028;-63
2021/03/21 10:16:13;;;;;;;1.88;1.02;;;21.80;41.00;;;;;;5045078;28;20745;-64
2021/03/21 10:18:58;;;;;;;1.75;0.93;;;21.80;41.00;;;;;;5042495;28;20033;-62
2021/03/21 10:21:24;;;;;;;1.17;0.75;;;21.80;41.00;;;;;;5043661;28;20032;-63
2021/03/21 10:23:56;;;;;;;1.80;1.00;;;21.80;41.00;;;;;;5043181;28;20032;-65
2021/03/21 10:26:25;;;;;;;2.30;1.00;;;21.80;41.00;;;;;;5044442;28;20503;-64
2021/03/21 10:28:56;;;;;;;1.65;0.88;;;21.80;41.00;;;;;;5037419;28;20133;-63
2021/03/21 10:31:21;;;;;;;1.63;0.90;;;21.80;41.10;;;;;;5040016;28;20037;-63
2021/03/21 10:33:48;;;;;;;3.75;0.80;;;21.80;41.10;;;;;;5041045;28;20029;-64
2021/03/21 10:36:39;;;;;;;1.20;0.90;;;21.80;41.10;;;;;;5043440;28;20029;-65
2021/03/21 10:39:31;;;;;;;1.27;0.80;;;21.80;41.10;;;;;;5052363;28;20025;-65
2021/03/21 10:42:03;;;;;;;1.52;1.00;;;21.80;41.10;;;;;;5028186;28;20202;-64
2021/03/21 10:44:32;;;;;;;1.33;0.80;;;21.80;41.20;;;;;;5043263;28;20033;-63
2021/03/21 10:47:01;;;;;;;1.30;0.75;;;21.80;41.20;;;;;;5042720;28;20028;-64
2021/03/21 10:49:47;;;;;;;1.83;0.90;;;21.80;41.30;;;;;;5043543;28;20650;-65
2021/03/21 10:52:25;;;;;;;1.67;0.80;;;21.80;41.30;;;;;;5042551;28;20387;-65
2021/03/21 10:57:41;;;;;;;1.92;1.05;;;21.80;41.30;;;;;;5042343;28;20051;-64
2021/03/21 11:00:20;;;;;;;1.75;0.90;;;21.80;41.40;;;;;;5043498;28;20029;-65
2021/03/21 11:02:47;;;;;;;2.05;0.90;;;21.90;41.40;;;;;;5038848;28;20511;-64
2021/03/21 11:05:44;;;;;;;2.72;0.85;;;21.80;41.40;;;;;;5041573;28;20574;-65
2021/03/21 11:08:12;;;;;;;1.50;0.90;;;21.80;41.40;;;;;;5037089;28;20025;-64
2021/03/21 11:10:49;;;;;;;2.47;0.90;;;21.90;41.50;;;;;;5042296;28;20036;-65
2021/03/21 11:13:16;;;;;;;2.58;1.00;;;21.90;41.50;;;;;;5042042;28;20467;-65
2021/03/21 11:15:46;;;;;;;1.50;0.85;;;21.90;41.60;;;;;;5043377;28;20017;-65
2021/03/21 11:18:21;;;;;;;1.67;0.90;;;21.80;41.60;;;;;;5041922;28;20068;-65
2021/03/21 11:20:47;;;;;;;3.47;0.90;;;21.80;41.60;;;;;;5044471;28;20025;-63
2021/03/21 11:23:23;;;;;;;1.80;0.80;;;21.90;41.70;;;;;;5041382;28;20040;-62
2021/03/21 11:25:49;;;;;;;1.33;0.88;;;21.90;41.70;;;;;;5042785;28;20028;-65
2021/03/21 11:28:38;;;;;;;1.20;0.80;;;21.80;41.70;;;;;;5041048;28;20037;-67
2021/03/21 11:31:08;;;;;;;1.27;0.90;;;21.90;41.80;;;;;;5050050;28;20040;-65
2021/03/21 11:33:45;;;;;;;1.98;0.85;;;21.90;41.90;;;;;;5040232;28;20037;-63
2021/03/21 11:36:21;;;;;;;2.47;0.85;;;21.90;41.90;;;;;;5043431;28;20799;-62
2021/03/21 11:38:47;;;;;;;1.77;1.10;;;22.00;42.00;;;;;;5035045;28;20029;-66
2021/03/21 11:41:30;;;;;;;1.17;0.80;;;22.00;42.00;;;;;;5042495;28;20498;-66
2021/03/21 11:44:16;;;;;;;1.67;0.80;;;22.00;42.00;;;;;;5043664;28;20044;-66
2021/03/21 11:46:41;;;;;;;1.38;0.80;;;22.00;42.00;;;;;;5040347;28;20048;-66
2021/03/21 11:49:09;;;;;;;1.13;0.75;;;22.10;42.00;;;;;;5055206;28;20089;-64
2021/03/21 11:51:35;;;;;;;2.13;0.80;;;22.10;42.00;;;;;;5025128;28;20028;-64
2021/03/21 11:54:01;;;;;;;1.75;1.00;;;22.10;42.00;;;;;;5033090;28;20033;-64
2021/03/21 11:56:33;;;;;;;1.73;0.95;;;22.10;42.00;;;;;;5045422;28;20080;-64
2021/03/21 11:59:18;;;;;;;1.95;1.08;;;22.20;42.00;;;;;;5043502;28;20033;-63
2021/03/21 12:01:50;;;;;;;3.50;1.10;;;22.20;41.90;;;;;;5030067;28;20087;-67
2021/03/21 12:04:33;;;;;;;2.85;1.20;;;22.20;41.90;;;;;;5039186;28;20036;-67
2021/03/21 12:06:59;;;;;;;3.03;1.90;;;22.20;41.90;;;;;;5047680;28;20040;-67
2021/03/21 12:09:36;;;;;;;5.68;3.05;;;22.20;38.90;;;;;;5041721;28;20035;-67
2021/03/21 12:12:24;;;;;;;5.95;3.80;;;22.20;34.90;;;;;;5041387;28;20048;-68
2021/03/21 12:14:49;;;;;;;4.28;3.67;;;22.00;32.30;;;;;;5040727;28;20510;-67
2021/03/21 12:17:24;;;;;;;5.32;4.00;;;21.80;31.50;;;;;;5042775;28;20033;-67
2021/03/21 12:19:52;;;;;;;4.53;3.17;;;21.70;30.10;;;;;;5044030;28;20040;-67
2021/03/21 12:22:50;;;;;;;3.70;2.50;;;21.50;31.30;;;;;;5042529;28;20052;-61
2021/03/21 12:25:26;;;;;;;3.15;1.83;;;21.60;32.70;;;;;;5026992;28;20076;-61
2021/03/21 12:28:27;;;;;;;3.20;1.88;;;21.70;33.70;;;;;;5040008;28;20024;-62
2021/03/21 12:31:06;;;;;;;2.80;1.70;;;21.90;34.40;;;;;;5039083;28;20037;-58
2021/03/21 12:33:36;;;;;;;4.37;1.80;;;22.10;35.00;;;;;;5037762;28;20022;-61
2021/03/21 12:36:08;;;;;;;3.40;1.60;;;22.20;34.60;;;;;;5041679;28;20029;-61
2021/03/21 12:38:41;;;;;;;2.85;1.58;;;22.30;34.80;;;;;;5034512;28;20021;-62
2021/03/21 12:41:28;;;;;;;2.65;1.67;;;22.40;35.10;;;;;;5039283;28;20078;-64
2021/03/21 12:44:19;;;;;;;2.50;1.40;;;22.60;35.40;;;;;;5023272;28;20057;-61
2021/03/21 12:47:10;;;;;;;3.08;1.48;;;22.70;35.70;;;;;;5037890;28;20032;-61
2021/03/21 12:49:39;;;;;;;2.70;1.58;;;22.80;36.00;;;;;;5034365;28;20037;-57
2021/03/21 12:52:09;;;;;;;3.95;1.40;;;22.90;36.00;;;;;;5041365;28;20037;-56
2021/03/21 12:54:37;;;;;;;2.70;1.58;;;23.00;36.10;;;;;;5042225;28;20033;-62
2021/03/21 12:57:03;;;;;;;3.65;1.42;;;23.10;36.10;;;;;;5046624;28;20029;-63
2021/03/21 12:59:29;;;;;;;3.90;1.52;;;23.20;36.20;;;;;;5040227;28;20036;-58
2021/03/21 13:01:56;;;;;;;2.25;1.00;;;23.30;36.20;;;;;;5034063;28;20565;-63
2021/03/21 13:04:21;;;;;;;2.05;1.17;;;23.30;36.30;;;;;;5040397;28;20032;-63
2021/03/21 13:06:47;;;;;;;2.58;1.13;;;23.20;36.50;;;;;;5040887;28;20063;-65
2021/03/21 13:09:13;;;;;;;2.33;1.00;;;23.20;36.70;;;;;;5041254;28;20032;-63
2021/03/21 13:11:39;;;;;;;1.83;1.00;;;23.10;36.90;;;;;;5040274;28;20041;-62
2021/03/21 13:14:05;;;;;;;3.60;1.15;;;23.10;37.40;;;;;;5044352;28;20041;-64
2021/03/21 13:16:32;;;;;;;2.42;1.30;;;23.00;37.30;;;;;;5044731;28;20025;-64
2021/03/21 13:18:58;;;;;;;2.35;1.17;;;23.10;37.50;;;;;;5046667;28;20029;-64
2021/03/21 13:21:24;;;;;;;4.38;1.20;;;23.00;37.60;;;;;;5044998;28;20327;-63
2021/03/21 13:23:50;;;;;;;2.80;1.20;;;23.00;37.70;;;;;;5044608;28;20033;-63
2021/03/21 13:26:16;;;;;;;2.08;1.02;;;23.00;37.80;;;;;;5046859;28;20025;-64
2021/03/21 13:28:42;;;;;;;2.10;1.17;;;23.00;37.90;;;;;;5042246;28;20120;-62
2021/03/21 13:31:08;;;;;;;2.28;1.15;;;23.00;38.00;;;;;;5050619;28;20044;-61
2021/03/21 13:33:35;;;;;;;2.05;0.90;;;23.00;38.10;;;;;;5042697;28;20078;-62
2021/03/21 13:36:02;;;;;;;1.67;0.98;;;23.00;38.20;;;;;;5042145;28;20048;-62
2021/03/21 13:38:29;;;;;;;1.92;1.10;;;23.00;38.30;;;;;;5043182;28;20171;-62
2021/03/21 13:40:57;;;;;;;1.70;1.00;;;23.00;38.40;;;;;;5044583;28;20102;-65